sensor_id;sensor_type;location;lat;lon;timestamp;temperature;humidity
18888;DHT22;9576;47.792;9.628;2023-04-25T00:00:29;9.10;99.90
18888;DHT22;9576;47.792;9.628;2023-04-25T00:03:31;9.10;99.90
18888;DHT22;9576;47.792;9.628;2023-04-25T00:06:33;9.10;99.90
18888;DHT22;9576;47.792;9.628;2023-04-25T00:09:36;9.10;99.90
18888;DHT22;9576;47.792;9.628;2023-04-25T00:12:39;9.10;99.90
18888;DHT22;9576;47.792;9.628;2023-04-25T00:15:43;9.20;99.90
18888;DHT22;9576;47.792;9.628;2023-04-25T00:18:46;9.10;99.90
18888;DHT22;9576;47.792;9.628;2023-04-25T00:21:51;9.10;99.90
18888;DHT22;9576;47.792;9.628;2023-04-25T00:24:53;9.00;99.90
18888;DHT22;9576;47.792;9.628;2023-04-25T00:27:57;8.90;99.90
18888;DHT22;9576;47.792;9.628;2023-04-25T00:31:01;8.80;99.90
18888;DHT22;9576;47.792;9.628;2023-04-25T00:34:03;8.90;99.90
18888;DHT22;9576;47.792;9.628;2023-04-25T00:37:05;8.90;99.90
18888;DHT22;9576;47.792;9.628;2023-04-25T00:40:07;8.90;99.90
18888;DHT22;9576;47.792;9.628;2023-04-25T00:43:09;8.90;99.90
18888;DHT22;9576;47.792;9.628;2023-04-25T00:46:13;9.00;99.90
18888;DHT22;9576;47.792;9.628;2023-04-25T00:49:15;9.00;99.90
18888;DHT22;9576;47.792;9.628;2023-04-25T00:52:17;9.10;99.90
18888;DHT22;9576;47.792;9.628;2023-04-25T00:55:19;9.00;99.90
18888;DHT22;9576;47.792;9.628;2023-04-25T00:58:22;9.00;99.90
18888;DHT22;9576;47.792;9.628;2023-04-25T01:01:25;9.00;99.90
18888;DHT22;9576;47.792;9.628;2023-04-25T01:04:28;8.90;99.90
18888;DHT22;9576;47.792;9.628;2023-04-25T01:07:30;8.80;99.90
18888;DHT22;9576;47.792;9.628;2023-04-25T01:10:32;8.80;99.90
18888;DHT22;9576;47.792;9.628;2023-04-25T01:13:34;8.80;99.90
18888;DHT22;9576;47.792;9.628;2023-04-25T01:16:38;8.70;99.90
18888;DHT22;9576;47.792;9.628;2023-04-25T01:19:40;8.60;99.90
18888;DHT22;9576;47.792;9.628;2023-04-25T01:22:43;8.60;99.90
18888;DHT22;9576;47.792;9.628;2023-04-25T01:25:45;8.70;99.90
18888;DHT22;9576;47.792;9.628;2023-04-25T01:28:48;8.70;99.90
18888;DHT22;9576;47.792;9.628;2023-04-25T01:31:51;8.70;99.90
18888;DHT22;9576;47.792;9.628;2023-04-25T01:34:53;8.60;99.90
18888;DHT22;9576;47.792;9.628;2023-04-25T01:37:57;8.60;99.90
18888;DHT22;9576;47.792;9.628;2023-04-25T01:40:59;8.60;99.90
18888;DHT22;9576;47.792;9.628;2023-04-25T01:44:01;8.50;99.90
18888;DHT22;9576;47.792;9.628;2023-04-25T01:47:03;8.50;99.90
18888;DHT22;9576;47.792;9.628;2023-04-25T01:50:07;8.50;99.90
18888;DHT22;9576;47.792;9.628;2023-04-25T01:53:12;8.60;99.90
18888;DHT22;9576;47.792;9.628;2023-04-25T01:56:14;8.60;99.90
18888;DHT22;9576;47.792;9.628;2023-04-25T01:59:18;8.50;99.90
18888;DHT22;9576;47.792;9.628;2023-04-25T02:02:22;8.50;99.90
18888;DHT22;9576;47.792;9.628;2023-04-25T02:05:24;8.50;99.90
18888;DHT22;9576;47.792;9.628;2023-04-25T02:08:27;8.40;99.90
18888;DHT22;9576;47.792;9.628;2023-04-25T02:11:29;8.40;99.90
18888;DHT22;9576;47.792;9.628;2023-04-25T02:14:31;8.20;99.90
18888;DHT22;9576;47.792;9.628;2023-04-25T02:17:33;8.20;99.90
18888;DHT22;9576;47.792;9.628;2023-04-25T02:20:35;8.00;99.90
18888;DHT22;9576;47.792;9.628;2023-04-25T02:23:38;7.90;99.90
18888;DHT22;9576;47.792;9.628;2023-04-25T02:26:40;7.70;99.90
18888;DHT22;9576;47.792;9.628;2023-04-25T02:29:42;7.60;99.90
18888;DHT22;9576;47.792;9.628;2023-04-25T02:32:44;7.50;99.90
18888;DHT22;9576;47.792;9.628;2023-04-25T02:35:46;7.40;99.90
18888;DHT22;9576;47.792;9.628;2023-04-25T02:38:49;7.30;99.90
18888;DHT22;9576;47.792;9.628;2023-04-25T02:41:52;7.30;99.90
18888;DHT22;9576;47.792;9.628;2023-04-25T02:44:54;7.40;99.90
18888;DHT22;9576;47.792;9.628;2023-04-25T02:47:55;7.40;99.90
18888;DHT22;9576;47.792;9.628;2023-04-25T02:50:57;7.40;99.90
18888;DHT22;9576;47.792;9.628;2023-04-25T02:54:01;7.00;99.90
18888;DHT22;9576;47.792;9.628;2023-04-25T02:57:03;7.00;99.90
18888;DHT22;9576;47.792;9.628;2023-04-25T03:00:06;7.10;99.90
18888;DHT22;9576;47.792;9.628;2023-04-25T03:03:08;6.90;99.90
18888;DHT22;9576;47.792;9.628;2023-04-25T03:06:10;6.90;99.90
18888;DHT22;9576;47.792;9.628;2023-04-25T03:09:13;6.80;99.90
18888;DHT22;9576;47.792;9.628;2023-04-25T03:12:15;6.80;99.90
18888;DHT22;9576;47.792;9.628;2023-04-25T03:15:17;6.80;99.90
18888;DHT22;9576;47.792;9.628;2023-04-25T03:18:19;6.80;99.90
18888;DHT22;9576;47.792;9.628;2023-04-25T03:21:21;6.90;99.90
18888;DHT22;9576;47.792;9.628;2023-04-25T03:24:24;6.90;99.90
18888;DHT22;9576;47.792;9.628;2023-04-25T03:27:27;6.90;99.90
18888;DHT22;9576;47.792;9.628;2023-04-25T03:30:29;6.80;99.90
18888;DHT22;9576;47.792;9.628;2023-04-25T03:33:31;6.80;99.90
18888;DHT22;9576;47.792;9.628;2023-04-25T03:36:33;6.90;99.90
18888;DHT22;9576;47.792;9.628;2023-04-25T03:39:36;6.90;99.90
18888;DHT22;9576;47.792;9.628;2023-04-25T03:42:39;6.90;99.90
18888;DHT22;9576;47.792;9.628;2023-04-25T03:45:40;6.90;99.90
18888;DHT22;9576;47.792;9.628;2023-04-25T03:48:42;6.90;99.90
18888;DHT22;9576;47.792;9.628;2023-04-25T03:51:44;6.90;99.90
18888;DHT22;9576;47.792;9.628;2023-04-25T03:54:47;6.90;99.90
18888;DHT22;9576;47.792;9.628;2023-04-25T03:57:49;6.80;99.90
18888;DHT22;9576;47.792;9.628;2023-04-25T04:00:51;6.90;99.90
18888;DHT22;9576;47.792;9.628;2023-04-25T04:03:53;6.90;99.90
18888;DHT22;9576;47.792;9.628;2023-04-25T04:06:55;7.00;99.90
18888;DHT22;9576;47.792;9.628;2023-04-25T04:09:59;6.80;99.90
18888;DHT22;9576;47.792;9.628;2023-04-25T04:13:00;6.70;99.90
18888;DHT22;9576;47.792;9.628;2023-04-25T04:16:03;6.70;99.90
18888;DHT22;9576;47.792;9.628;2023-04-25T04:19:05;6.60;99.90
18888;DHT22;9576;47.792;9.628;2023-04-25T04:22:07;6.50;99.90
18888;DHT22;9576;47.792;9.628;2023-04-25T04:25:10;6.40;99.90
18888;DHT22;9576;47.792;9.628;2023-04-25T04:28:13;6.40;99.90
18888;DHT22;9576;47.792;9.628;2023-04-25T04:31:16;6.40;99.90
18888;DHT22;9576;47.792;9.628;2023-04-25T04:34:20;6.30;99.90
18888;DHT22;9576;47.792;9.628;2023-04-25T04:37:21;6.40;99.90
18888;DHT22;9576;47.792;9.628;2023-04-25T04:40:26;6.40;99.90
18888;DHT22;9576;47.792;9.628;2023-04-25T04:43:28;6.50;99.90
18888;DHT22;9576;47.792;9.628;2023-04-25T04:46:30;6.60;99.90
18888;DHT22;9576;47.792;9.628;2023-04-25T04:49:33;6.70;99.90
18888;DHT22;9576;47.792;9.628;2023-04-25T04:52:35;6.70;99.90
18888;DHT22;9576;47.792;9.628;2023-04-25T04:55:39;6.90;99.90
18888;DHT22;9576;47.792;9.628;2023-04-25T04:58:41;7.00;99.90
18888;DHT22;9576;47.792;9.628;2023-04-25T05:01:45;7.10;99.90
18888;DHT22;9576;47.792;9.628;2023-04-25T05:04:47;7.20;99.90
18888;DHT22;9576;47.792;9.628;2023-04-25T05:07:49;7.30;99.90
18888;DHT22;9576;47.792;9.628;2023-04-25T05:10:52;7.30;99.90
18888;DHT22;9576;47.792;9.628;2023-04-25T05:13:55;7.40;99.90
18888;DHT22;9576;47.792;9.628;2023-04-25T05:16:57;7.40;99.90
18888;DHT22;9576;47.792;9.628;2023-04-25T05:19:59;7.50;99.90
18888;DHT22;9576;47.792;9.628;2023-04-25T05:23:01;7.70;99.90
18888;DHT22;9576;47.792;9.628;2023-04-25T05:26:04;7.70;99.90
18888;DHT22;9576;47.792;9.628;2023-04-25T05:29:06;7.90;99.90
18888;DHT22;9576;47.792;9.628;2023-04-25T05:32:08;8.10;99.90
18888;DHT22;9576;47.792;9.628;2023-04-25T05:35:10;8.10;99.90
18888;DHT22;9576;47.792;9.628;2023-04-25T05:38:12;8.20;99.90
18888;DHT22;9576;47.792;9.628;2023-04-25T05:41:15;8.30;99.90
18888;DHT22;9576;47.792;9.628;2023-04-25T05:44:17;8.40;99.90
18888;DHT22;9576;47.792;9.628;2023-04-25T05:47:19;8.50;99.90
18888;DHT22;9576;47.792;9.628;2023-04-25T05:50:21;8.60;99.90
18888;DHT22;9576;47.792;9.628;2023-04-25T05:53:23;8.60;99.90
18888;DHT22;9576;47.792;9.628;2023-04-25T05:56:26;8.60;99.90
18888;DHT22;9576;47.792;9.628;2023-04-25T05:59:28;8.50;99.90
18888;DHT22;9576;47.792;9.628;2023-04-25T06:02:30;8.50;99.90
18888;DHT22;9576;47.792;9.628;2023-04-25T06:05:32;8.40;99.90
18888;DHT22;9576;47.792;9.628;2023-04-25T06:08:34;8.30;99.90
18888;DHT22;9576;47.792;9.628;2023-04-25T06:11:37;8.30;99.90
18888;DHT22;9576;47.792;9.628;2023-04-25T06:14:40;8.40;99.90
18888;DHT22;9576;47.792;9.628;2023-04-25T06:17:42;8.40;99.90
18888;DHT22;9576;47.792;9.628;2023-04-25T06:20:44;8.40;99.90
18888;DHT22;9576;47.792;9.628;2023-04-25T06:23:46;8.40;99.90
18888;DHT22;9576;47.792;9.628;2023-04-25T06:26:49;8.60;99.90
18888;DHT22;9576;47.792;9.628;2023-04-25T06:29:51;8.70;99.90
18888;DHT22;9576;47.792;9.628;2023-04-25T06:32:53;8.70;99.90
18888;DHT22;9576;47.792;9.628;2023-04-25T06:35:55;8.80;99.90
18888;DHT22;9576;47.792;9.628;2023-04-25T06:38:57;8.90;99.90
18888;DHT22;9576;47.792;9.628;2023-04-25T06:42:00;8.80;99.90
18888;DHT22;9576;47.792;9.628;2023-04-25T06:45:02;8.90;99.90
18888;DHT22;9576;47.792;9.628;2023-04-25T06:48:04;9.00;99.90
18888;DHT22;9576;47.792;9.628;2023-04-25T06:51:06;9.00;99.90
18888;DHT22;9576;47.792;9.628;2023-04-25T06:54:08;9.10;99.90
18888;DHT22;9576;47.792;9.628;2023-04-25T06:57:11;9.30;99.90
18888;DHT22;9576;47.792;9.628;2023-04-25T07:00:14;9.50;99.90
18888;DHT22;9576;47.792;9.628;2023-04-25T07:03:16;9.50;99.90
18888;DHT22;9576;47.792;9.628;2023-04-25T07:06:18;9.60;99.90
18888;DHT22;9576;47.792;9.628;2023-04-25T07:09:20;9.80;99.90
18888;DHT22;9576;47.792;9.628;2023-04-25T07:12:23;9.90;99.90
18888;DHT22;9576;47.792;9.628;2023-04-25T07:15:25;10.20;99.90
18888;DHT22;9576;47.792;9.628;2023-04-25T07:18:27;10.40;99.90
18888;DHT22;9576;47.792;9.628;2023-04-25T07:21:29;10.50;99.90
18888;DHT22;9576;47.792;9.628;2023-04-25T07:24:33;10.60;99.90
18888;DHT22;9576;47.792;9.628;2023-04-25T07:27:36;10.60;99.90
18888;DHT22;9576;47.792;9.628;2023-04-25T07:30:38;10.70;99.90
18888;DHT22;9576;47.792;9.628;2023-04-25T07:33:40;10.70;99.90
18888;DHT22;9576;47.792;9.628;2023-04-25T07:36:42;10.70;99.90
18888;DHT22;9576;47.792;9.628;2023-04-25T07:39:43;10.70;99.90
18888;DHT22;9576;47.792;9.628;2023-04-25T07:42:47;10.80;99.90
18888;DHT22;9576;47.792;9.628;2023-04-25T07:45:49;10.80;99.90
18888;DHT22;9576;47.792;9.628;2023-04-25T07:48:51;10.80;99.90
18888;DHT22;9576;47.792;9.628;2023-04-25T07:51:53;10.80;99.90
18888;DHT22;9576;47.792;9.628;2023-04-25T07:54:56;10.80;99.90
18888;DHT22;9576;47.792;9.628;2023-04-25T07:58:00;10.70;99.90
18888;DHT22;9576;47.792;9.628;2023-04-25T08:01:02;10.50;99.90
18888;DHT22;9576;47.792;9.628;2023-04-25T08:04:04;10.30;99.90
18888;DHT22;9576;47.792;9.628;2023-04-25T08:07:06;10.20;99.90
18888;DHT22;9576;47.792;9.628;2023-04-25T08:10:09;10.00;99.90
18888;DHT22;9576;47.792;9.628;2023-04-25T08:13:12;9.90;99.90
18888;DHT22;9576;47.792;9.628;2023-04-25T08:16:14;9.90;99.90
18888;DHT22;9576;47.792;9.628;2023-04-25T08:19:16;9.80;99.90
18888;DHT22;9576;47.792;9.628;2023-04-25T08:22:18;9.50;99.90
18888;DHT22;9576;47.792;9.628;2023-04-25T08:25:20;9.50;99.90
18888;DHT22;9576;47.792;9.628;2023-04-25T08:28:23;9.30;99.90
18888;DHT22;9576;47.792;9.628;2023-04-25T08:31:25;9.10;99.90
18888;DHT22;9576;47.792;9.628;2023-04-25T08:34:27;8.80;99.90
18888;DHT22;9576;47.792;9.628;2023-04-25T08:37:29;8.60;99.90
18888;DHT22;9576;47.792;9.628;2023-04-25T08:40:37;8.30;99.90
18888;DHT22;9576;47.792;9.628;2023-04-25T08:43:42;7.80;99.90
18888;DHT22;9576;47.792;9.628;2023-04-25T08:46:47;7.60;99.90
18888;DHT22;9576;47.792;9.628;2023-04-25T08:49:52;7.30;99.90
18888;DHT22;9576;47.792;9.628;2023-04-25T08:52:57;7.20;99.90
18888;DHT22;9576;47.792;9.628;2023-04-25T08:56:02;7.20;99.90
18888;DHT22;9576;47.792;9.628;2023-04-25T08:59:05;7.10;99.90
18888;DHT22;9576;47.792;9.628;2023-04-25T09:02:08;7.20;99.90
18888;DHT22;9576;47.792;9.628;2023-04-25T09:05:14;7.30;99.90
18888;DHT22;9576;47.792;9.628;2023-04-25T09:08:16;7.30;99.90
18888;DHT22;9576;47.792;9.628;2023-04-25T09:11:18;7.30;99.90
18888;DHT22;9576;47.792;9.628;2023-04-25T09:14:23;7.30;99.90
18888;DHT22;9576;47.792;9.628;2023-04-25T09:17:26;7.20;99.90
18888;DHT22;9576;47.792;9.628;2023-04-25T09:20:29;7.30;99.90
18888;DHT22;9576;47.792;9.628;2023-04-25T09:23:39;7.30;99.90
18888;DHT22;9576;47.792;9.628;2023-04-25T09:26:41;7.30;99.90
18888;DHT22;9576;47.792;9.628;2023-04-25T09:29:45;7.40;99.90
18888;DHT22;9576;47.792;9.628;2023-04-25T09:32:47;7.30;99.90
18888;DHT22;9576;47.792;9.628;2023-04-25T09:35:49;7.30;99.90
18888;DHT22;9576;47.792;9.628;2023-04-25T09:38:55;7.30;99.90
18888;DHT22;9576;47.792;9.628;2023-04-25T09:41:57;7.20;99.90
18888;DHT22;9576;47.792;9.628;2023-04-25T09:45:02;7.10;99.90
18888;DHT22;9576;47.792;9.628;2023-04-25T09:48:05;7.20;99.90
18888;DHT22;9576;47.792;9.628;2023-04-25T09:51:08;7.30;99.90
18888;DHT22;9576;47.792;9.628;2023-04-25T09:54:10;7.50;99.90
18888;DHT22;9576;47.792;9.628;2023-04-25T09:57:13;7.60;99.90
18888;DHT22;9576;47.792;9.628;2023-04-25T10:00:17;7.80;99.90
18888;DHT22;9576;47.792;9.628;2023-04-25T10:03:24;7.70;99.90
18888;DHT22;9576;47.792;9.628;2023-04-25T10:06:27;7.70;99.90
18888;DHT22;9576;47.792;9.628;2023-04-25T10:09:32;7.70;99.90
18888;DHT22;9576;47.792;9.628;2023-04-25T10:12:34;7.80;99.90
18888;DHT22;9576;47.792;9.628;2023-04-25T10:15:37;7.80;99.90
18888;DHT22;9576;47.792;9.628;2023-04-25T10:18:39;7.80;99.90
18888;DHT22;9576;47.792;9.628;2023-04-25T10:21:46;7.70;99.90
18888;DHT22;9576;47.792;9.628;2023-04-25T10:24:50;7.70;99.90
18888;DHT22;9576;47.792;9.628;2023-04-25T10:27:53;7.70;99.90
18888;DHT22;9576;47.792;9.628;2023-04-25T10:31:00;7.80;99.90
18888;DHT22;9576;47.792;9.628;2023-04-25T10:34:03;7.80;99.90
18888;DHT22;9576;47.792;9.628;2023-04-25T10:37:08;7.90;99.90
18888;DHT22;9576;47.792;9.628;2023-04-25T10:40:11;7.90;99.90
18888;DHT22;9576;47.792;9.628;2023-04-25T10:43:38;8.10;99.90
18888;DHT22;9576;47.792;9.628;2023-04-25T10:46:44;8.30;99.90
18888;DHT22;9576;47.792;9.628;2023-04-25T10:49:50;8.50;99.90
18888;DHT22;9576;47.792;9.628;2023-04-25T10:52:53;8.50;99.90
18888;DHT22;9576;47.792;9.628;2023-04-25T10:55:55;8.70;99.90
18888;DHT22;9576;47.792;9.628;2023-04-25T10:59:06;8.90;99.90
18888;DHT22;9576;47.792;9.628;2023-04-25T11:02:12;9.00;99.90
18888;DHT22;9576;47.792;9.628;2023-04-25T11:05:23;9.00;99.90
18888;DHT22;9576;47.792;9.628;2023-04-25T11:08:36;9.00;99.90
18888;DHT22;9576;47.792;9.628;2023-04-25T11:11:48;8.80;99.90
18888;DHT22;9576;47.792;9.628;2023-04-25T11:14:59;9.00;99.90
18888;DHT22;9576;47.792;9.628;2023-04-25T11:18:03;9.00;99.90
18888;DHT22;9576;47.792;9.628;2023-04-25T11:21:06;9.10;99.90
18888;DHT22;9576;47.792;9.628;2023-04-25T11:24:07;9.00;99.90
18888;DHT22;9576;47.792;9.628;2023-04-25T11:27:09;9.10;99.90
18888;DHT22;9576;47.792;9.628;2023-04-25T11:30:13;9.30;99.90
18888;DHT22;9576;47.792;9.628;2023-04-25T11:33:17;9.40;99.90
18888;DHT22;9576;47.792;9.628;2023-04-25T11:36:19;9.70;99.90
18888;DHT22;9576;47.792;9.628;2023-04-25T11:39:21;10.00;99.90
18888;DHT22;9576;47.792;9.628;2023-04-25T11:42:23;10.30;99.90
18888;DHT22;9576;47.792;9.628;2023-04-25T11:45:25;10.20;99.90
18888;DHT22;9576;47.792;9.628;2023-04-25T11:48:37;10.10;99.90
18888;DHT22;9576;47.792;9.628;2023-04-25T11:51:39;10.20;99.90
18888;DHT22;9576;47.792;9.628;2023-04-25T11:54:41;10.10;99.90
18888;DHT22;9576;47.792;9.628;2023-04-25T11:57:46;10.10;99.90
18888;DHT22;9576;47.792;9.628;2023-04-25T12:00:49;10.00;99.90
18888;DHT22;9576;47.792;9.628;2023-04-25T12:03:52;10.00;99.90
18888;DHT22;9576;47.792;9.628;2023-04-25T12:06:55;9.90;99.90
18888;DHT22;9576;47.792;9.628;2023-04-25T12:09:57;10.10;99.90
18888;DHT22;9576;47.792;9.628;2023-04-25T12:12:59;10.20;99.90
18888;DHT22;9576;47.792;9.628;2023-04-25T12:16:01;10.50;99.90
18888;DHT22;9576;47.792;9.628;2023-04-25T12:19:04;10.60;99.90
18888;DHT22;9576;47.792;9.628;2023-04-25T12:22:19;10.60;99.90
18888;DHT22;9576;47.792;9.628;2023-04-25T12:25:43;10.50;99.90
18888;DHT22;9576;47.792;9.628;2023-04-25T12:28:45;10.50;99.90
18888;DHT22;9576;47.792;9.628;2023-04-25T12:31:49;10.50;99.90
18888;DHT22;9576;47.792;9.628;2023-04-25T12:34:53;10.60;99.90
18888;DHT22;9576;47.792;9.628;2023-04-25T12:37:55;10.70;99.90
18888;DHT22;9576;47.792;9.628;2023-04-25T12:40:57;10.90;99.90
18888;DHT22;9576;47.792;9.628;2023-04-25T12:43:59;11.20;99.90
18888;DHT22;9576;47.792;9.628;2023-04-25T12:47:01;11.00;99.90
18888;DHT22;9576;47.792;9.628;2023-04-25T12:50:05;10.40;99.90
18888;DHT22;9576;47.792;9.628;2023-04-25T12:53:07;9.80;99.90
18888;DHT22;9576;47.792;9.628;2023-04-25T12:56:09;9.90;99.90
18888;DHT22;9576;47.792;9.628;2023-04-25T12:59:11;10.50;99.90
18888;DHT22;9576;47.792;9.628;2023-04-25T13:02:13;11.00;99.90
18888;DHT22;9576;47.792;9.628;2023-04-25T13:05:16;11.00;99.90
18888;DHT22;9576;47.792;9.628;2023-04-25T13:08:18;10.80;99.90
18888;DHT22;9576;47.792;9.628;2023-04-25T13:11:21;10.40;99.90
18888;DHT22;9576;47.792;9.628;2023-04-25T13:14:23;10.10;99.90
18888;DHT22;9576;47.792;9.628;2023-04-25T13:17:25;10.00;99.90
18888;DHT22;9576;47.792;9.628;2023-04-25T13:20:28;9.90;99.90
18888;DHT22;9576;47.792;9.628;2023-04-25T13:23:30;10.10;99.90
18888;DHT22;9576;47.792;9.628;2023-04-25T13:26:32;10.50;99.90
18888;DHT22;9576;47.792;9.628;2023-04-25T13:29:34;11.00;99.90
18888;DHT22;9576;47.792;9.628;2023-04-25T13:32:36;11.20;99.90
18888;DHT22;9576;47.792;9.628;2023-04-25T13:35:40;11.30;99.90
18888;DHT22;9576;47.792;9.628;2023-04-25T13:38:42;11.80;99.90
18888;DHT22;9576;47.792;9.628;2023-04-25T13:41:47;12.40;99.90
18888;DHT22;9576;47.792;9.628;2023-04-25T13:44:49;12.70;99.90
18888;DHT22;9576;47.792;9.628;2023-04-25T13:47:51;13.00;99.90
18888;DHT22;9576;47.792;9.628;2023-04-25T13:50:54;13.30;99.90
18888;DHT22;9576;47.792;9.628;2023-04-25T13:53:56;14.00;99.90
18888;DHT22;9576;47.792;9.628;2023-04-25T13:56:58;14.10;99.90
18888;DHT22;9576;47.792;9.628;2023-04-25T14:00:01;14.20;99.90
18888;DHT22;9576;47.792;9.628;2023-04-25T14:03:07;14.40;99.90
18888;DHT22;9576;47.792;9.628;2023-04-25T14:06:10;15.20;99.90
18888;DHT22;9576;47.792;9.628;2023-04-25T14:09:13;16.00;99.90
18888;DHT22;9576;47.792;9.628;2023-04-25T14:12:16;15.80;99.90
18888;DHT22;9576;47.792;9.628;2023-04-25T14:15:18;14.40;99.90
18888;DHT22;9576;47.792;9.628;2023-04-25T14:18:20;13.90;99.90
18888;DHT22;9576;47.792;9.628;2023-04-25T14:21:24;14.40;99.90
18888;DHT22;9576;47.792;9.628;2023-04-25T14:24:26;14.30;99.90
18888;DHT22;9576;47.792;9.628;2023-04-25T14:27:28;13.70;99.90
18888;DHT22;9576;47.792;9.628;2023-04-25T14:30:29;13.60;99.90
18888;DHT22;9576;47.792;9.628;2023-04-25T14:33:31;14.40;99.90
18888;DHT22;9576;47.792;9.628;2023-04-25T14:36:35;14.10;99.90
18888;DHT22;9576;47.792;9.628;2023-04-25T14:39:37;13.90;99.90
18888;DHT22;9576;47.792;9.628;2023-04-25T14:42:39;14.80;99.90
18888;DHT22;9576;47.792;9.628;2023-04-25T14:45:41;16.00;99.90
18888;DHT22;9576;47.792;9.628;2023-04-25T14:48:43;17.60;99.90
18888;DHT22;9576;47.792;9.628;2023-04-25T14:51:47;18.90;99.90
18888;DHT22;9576;47.792;9.628;2023-04-25T14:54:48;19.60;99.90
18888;DHT22;9576;47.792;9.628;2023-04-25T14:57:50;19.10;99.90
18888;DHT22;9576;47.792;9.628;2023-04-25T15:00:52;18.50;99.90
18888;DHT22;9576;47.792;9.628;2023-04-25T15:03:54;17.60;99.90
18888;DHT22;9576;47.792;9.628;2023-04-25T15:06:59;18.10;99.90
18888;DHT22;9576;47.792;9.628;2023-04-25T15:10:02;18.20;99.90
18888;DHT22;9576;47.792;9.628;2023-04-25T15:13:04;18.90;99.90
18888;DHT22;9576;47.792;9.628;2023-04-25T15:16:06;19.20;99.90
18888;DHT22;9576;47.792;9.628;2023-04-25T15:19:08;19.20;99.90
18888;DHT22;9576;47.792;9.628;2023-04-25T15:22:11;19.60;99.90
18888;DHT22;9576;47.792;9.628;2023-04-25T15:25:13;20.60;99.90
18888;DHT22;9576;47.792;9.628;2023-04-25T15:28:15;20.60;99.90
18888;DHT22;9576;47.792;9.628;2023-04-25T15:31:17;19.60;99.90
18888;DHT22;9576;47.792;9.628;2023-04-25T15:34:19;18.90;99.90
18888;DHT22;9576;47.792;9.628;2023-04-25T15:37:22;18.00;99.90
18888;DHT22;9576;47.792;9.628;2023-04-25T15:40:24;18.00;99.90
18888;DHT22;9576;47.792;9.628;2023-04-25T15:43:26;17.60;99.90
18888;DHT22;9576;47.792;9.628;2023-04-25T15:46:29;16.60;99.90
18888;DHT22;9576;47.792;9.628;2023-04-25T15:49:31;15.70;99.90
18888;DHT22;9576;47.792;9.628;2023-04-25T15:52:36;14.70;99.90
18888;DHT22;9576;47.792;9.628;2023-04-25T15:55:38;13.90;99.90
18888;DHT22;9576;47.792;9.628;2023-04-25T15:58:40;13.30;99.90
18888;DHT22;9576;47.792;9.628;2023-04-25T16:01:41;12.80;99.90
18888;DHT22;9576;47.792;9.628;2023-04-25T16:04:45;12.60;99.90
18888;DHT22;9576;47.792;9.628;2023-04-25T16:07:49;12.60;99.90
18888;DHT22;9576;47.792;9.628;2023-04-25T16:10:53;12.30;99.90
18888;DHT22;9576;47.792;9.628;2023-04-25T16:14:03;11.80;99.90
18888;DHT22;9576;47.792;9.628;2023-04-25T16:17:05;11.40;99.90
18888;DHT22;9576;47.792;9.628;2023-04-25T16:20:08;10.60;99.90
18888;DHT22;9576;47.792;9.628;2023-04-25T16:23:12;10.40;99.90
18888;DHT22;9576;47.792;9.628;2023-04-25T16:26:13;10.30;99.90
18888;DHT22;9576;47.792;9.628;2023-04-25T16:29:17;10.30;99.90
18888;DHT22;9576;47.792;9.628;2023-04-25T16:32:19;10.30;99.90
18888;DHT22;9576;47.792;9.628;2023-04-25T16:35:21;10.20;99.90
18888;DHT22;9576;47.792;9.628;2023-04-25T16:38:23;10.30;99.90
18888;DHT22;9576;47.792;9.628;2023-04-25T16:41:24;10.40;99.90
18888;DHT22;9576;47.792;9.628;2023-04-25T16:44:28;10.10;99.90
18888;DHT22;9576;47.792;9.628;2023-04-25T16:47:30;9.80;99.90
18888;DHT22;9576;47.792;9.628;2023-04-25T16:50:32;9.70;99.90
18888;DHT22;9576;47.792;9.628;2023-04-25T16:53:34;9.40;99.90
18888;DHT22;9576;47.792;9.628;2023-04-25T16:56:36;9.20;99.90
18888;DHT22;9576;47.792;9.628;2023-04-25T16:59:39;8.80;99.90
18888;DHT22;9576;47.792;9.628;2023-04-25T17:02:41;8.30;99.90
18888;DHT22;9576;47.792;9.628;2023-04-25T17:05:43;8.00;99.90
18888;DHT22;9576;47.792;9.628;2023-04-25T17:08:45;7.90;99.90
18888;DHT22;9576;47.792;9.628;2023-04-25T17:11:47;8.00;99.90
18888;DHT22;9576;47.792;9.628;2023-04-25T17:14:50;8.10;99.90
18888;DHT22;9576;47.792;9.628;2023-04-25T17:17:52;8.20;99.90
18888;DHT22;9576;47.792;9.628;2023-04-25T17:20:54;8.10;99.90
18888;DHT22;9576;47.792;9.628;2023-04-25T17:23:56;8.10;99.90
18888;DHT22;9576;47.792;9.628;2023-04-25T17:26:58;8.00;99.90
18888;DHT22;9576;47.792;9.628;2023-04-25T17:30:03;8.10;99.90
18888;DHT22;9576;47.792;9.628;2023-04-25T17:33:05;8.10;99.90
18888;DHT22;9576;47.792;9.628;2023-04-25T17:36:08;8.00;99.90
18888;DHT22;9576;47.792;9.628;2023-04-25T17:39:10;8.00;99.90
18888;DHT22;9576;47.792;9.628;2023-04-25T17:42:14;7.90;99.90
18888;DHT22;9576;47.792;9.628;2023-04-25T17:45:17;7.90;99.90
18888;DHT22;9576;47.792;9.628;2023-04-25T17:48:19;7.80;99.90
18888;DHT22;9576;47.792;9.628;2023-04-25T17:51:22;7.70;99.90
18888;DHT22;9576;47.792;9.628;2023-04-25T17:54:24;7.60;99.90
18888;DHT22;9576;47.792;9.628;2023-04-25T17:57:27;7.60;99.90
18888;DHT22;9576;47.792;9.628;2023-04-25T18:00:30;7.80;99.90
18888;DHT22;9576;47.792;9.628;2023-04-25T18:03:33;7.90;99.90
18888;DHT22;9576;47.792;9.628;2023-04-25T18:06:37;8.00;99.90
18888;DHT22;9576;47.792;9.628;2023-04-25T18:09:39;8.00;99.90
18888;DHT22;9576;47.792;9.628;2023-04-25T18:12:41;7.90;99.90
18888;DHT22;9576;47.792;9.628;2023-04-25T18:15:45;7.80;99.90
18888;DHT22;9576;47.792;9.628;2023-04-25T18:18:47;7.70;99.90
18888;DHT22;9576;47.792;9.628;2023-04-25T18:21:53;7.70;99.90
18888;DHT22;9576;47.792;9.628;2023-04-25T18:24:55;7.50;99.90
18888;DHT22;9576;47.792;9.628;2023-04-25T18:27:57;7.50;99.90
18888;DHT22;9576;47.792;9.628;2023-04-25T18:31:01;7.50;99.90
18888;DHT22;9576;47.792;9.628;2023-04-25T18:34:03;7.60;99.90
18888;DHT22;9576;47.792;9.628;2023-04-25T18:37:05;7.60;99.90
18888;DHT22;9576;47.792;9.628;2023-04-25T18:40:08;7.70;99.90
18888;DHT22;9576;47.792;9.628;2023-04-25T18:43:13;7.60;99.90
18888;DHT22;9576;47.792;9.628;2023-04-25T18:46:16;7.60;99.90
18888;DHT22;9576;47.792;9.628;2023-04-25T18:49:21;7.60;99.90
18888;DHT22;9576;47.792;9.628;2023-04-25T18:52:23;7.50;99.90
18888;DHT22;9576;47.792;9.628;2023-04-25T18:55:25;7.50;99.90
18888;DHT22;9576;47.792;9.628;2023-04-25T18:58:28;7.50;99.90
18888;DHT22;9576;47.792;9.628;2023-04-25T19:01:31;7.60;99.90
18888;DHT22;9576;47.792;9.628;2023-04-25T19:04:33;7.70;99.90
18888;DHT22;9576;47.792;9.628;2023-04-25T19:07:36;7.80;99.90
18888;DHT22;9576;47.792;9.628;2023-04-25T19:10:38;7.70;99.90
18888;DHT22;9576;47.792;9.628;2023-04-25T19:13:40;7.70;99.90
18888;DHT22;9576;47.792;9.628;2023-04-25T19:16:44;7.70;99.90
18888;DHT22;9576;47.792;9.628;2023-04-25T19:19:46;7.80;99.90
18888;DHT22;9576;47.792;9.628;2023-04-25T19:22:47;7.70;99.90
18888;DHT22;9576;47.792;9.628;2023-04-25T19:25:49;7.60;99.90
18888;DHT22;9576;47.792;9.628;2023-04-25T19:29:03;7.60;99.90
18888;DHT22;9576;47.792;9.628;2023-04-25T19:32:07;7.50;99.90
18888;DHT22;9576;47.792;9.628;2023-04-25T19:35:09;7.40;99.90
18888;DHT22;9576;47.792;9.628;2023-04-25T19:38:11;7.30;99.90
18888;DHT22;9576;47.792;9.628;2023-04-25T19:41:14;7.30;99.90
18888;DHT22;9576;47.792;9.628;2023-04-25T19:44:17;7.30;99.90
18888;DHT22;9576;47.792;9.628;2023-04-25T19:47:20;7.40;99.90